createdAt,value
2018-02-23T00:00:40.843Z,-8.81
2018-02-23T00:01:40.817Z,-8.86
2018-02-23T00:02:40.795Z,-8.88
2018-02-23T00:03:40.778Z,-8.83
2018-02-23T00:04:40.492Z,-8.88
2018-02-23T00:05:40.726Z,-8.91
2018-02-23T00:06:40.442Z,-8.87
2018-02-23T00:07:40.419Z,-8.96
2018-02-23T00:08:40.654Z,-8.9
2018-02-23T00:09:40.372Z,-8.87
2018-02-23T00:10:40.345Z,-8.8
2018-02-23T00:11:40.585Z,-8.78
2018-02-23T00:12:40.565Z,-8.87
2018-02-23T00:13:40.532Z,-8.91
2018-02-23T00:14:40.511Z,-8.84
2018-02-23T00:15:40.493Z,-8.87
2018-02-23T00:16:40.650Z,-8.9
2018-02-23T00:17:40.447Z,-8.86
2018-02-23T00:18:40.160Z,-8.87
2018-02-23T00:19:40.399Z,-8.88
2018-02-23T00:20:40.379Z,-8.94
2018-02-23T00:21:40.348Z,-8.98
2018-02-23T00:22:40.336Z,-9.01
2018-02-23T00:23:40.305Z,-8.99
2018-02-23T00:24:40.277Z,-9.09
2018-02-23T00:25:40.254Z,-9.06
2018-02-23T00:26:40.227Z,-9.01
2018-02-23T00:27:39.693Z,-9.01
2018-02-23T00:28:40.181Z,-9.12
2018-02-23T00:29:40.159Z,-9.15
2018-02-23T00:30:40.138Z,-9.09
2018-02-23T00:31:40.114Z,-9.08
2018-02-23T00:32:40.086Z,-9.17
2018-02-23T00:33:39.813Z,-9.19
2018-02-23T00:34:39.525Z,-9.23
2018-02-23T00:35:39.762Z,-9.16
2018-02-23T00:36:39.997Z,-9.27
2018-02-23T00:37:39.971Z,-9.22
2018-02-23T00:38:39.431Z,-9.25
2018-02-23T00:39:39.923Z,-9.22
2018-02-23T00:40:39.646Z,-9.22
2018-02-23T00:41:39.384Z,-9.29
2018-02-23T00:42:39.601Z,-9.38
2018-02-23T00:43:39.572Z,-9.31
2018-02-23T00:44:39.548Z,-9.34
2018-02-23T00:45:39.527Z,-9.29
2018-02-23T00:46:39.502Z,-9.34
2018-02-23T00:47:39.737Z,-9.37
2018-02-23T00:48:39.198Z,-9.41
2018-02-23T00:49:39.174Z,-9.36
2018-02-23T00:50:39.669Z,-9.52
2018-02-23T00:51:39.381Z,-9.41
2018-02-23T00:52:39.364Z,-9.47
2018-02-23T00:53:39.337Z,-9.37
2018-02-23T00:54:39.322Z,-9.47
2018-02-23T00:55:39.547Z,-9.53
2018-02-23T00:56:39.264Z,-9.48
2018-02-23T00:57:39.243Z,-9.48
2018-02-23T00:58:39.481Z,-9.5
2018-02-23T00:59:39.457Z,-9.45
2018-02-23T01:00:38.912Z,-9.52
2018-02-23T01:01:39.408Z,-9.56
2018-02-23T01:02:39.128Z,-9.47
2018-02-23T01:03:39.360Z,-9.55
2018-02-23T01:04:39.342Z,-9.52
2018-02-23T01:05:39.319Z,-9.57
2018-02-23T01:06:38.771Z,-9.55
2018-02-23T01:07:39.004Z,-9.56
2018-02-23T01:08:39.246Z,-9.55
2018-02-23T01:09:38.959Z,-9.47
2018-02-23T01:10:39.194Z,-9.47
2018-02-23T01:11:39.166Z,-9.52
2018-02-23T01:12:39.141Z,-9.59
2018-02-23T01:13:39.117Z,-9.53
2018-02-23T01:14:39.099Z,-9.52
2018-02-23T01:15:38.813Z,-9.52
2018-02-23T01:16:38.790Z,-9.52
2018-02-23T01:17:39.027Z,-9.56
2018-02-23T01:18:39.013Z,-9.66
2018-02-23T01:19:38.979Z,-9.68
2018-02-23T01:20:38.953Z,-9.7
2018-02-23T01:21:38.981Z,-9.65
2018-02-23T01:22:38.908Z,-9.66
2018-02-23T01:23:38.884Z,-9.7
2018-02-23T01:24:38.862Z,-9.81
2018-02-23T01:25:38.835Z,-9.62
2018-02-23T01:26:38.295Z,-9.59
2018-02-23T01:27:38.526Z,-9.68
2018-02-23T01:28:38.510Z,-9.59
2018-02-23T01:29:38.743Z,-9.62
2018-02-23T01:30:38.729Z,-9.62
2018-02-23T01:31:38.690Z,-9.6
2018-02-23T01:32:38.674Z,-9.6
2018-02-23T01:33:38.386Z,-9.62
2018-02-23T01:34:38.630Z,-9.59
2018-02-23T01:35:38.341Z,-9.59
2018-02-23T01:36:38.573Z,-9.59
2018-02-23T01:37:38.546Z,-9.65
2018-02-23T01:38:38.267Z,-9.66
2018-02-23T01:39:38.503Z,-9.59
2018-02-23T01:40:38.222Z,-9.56
2018-02-23T01:41:38.196Z,-9.56
2018-02-23T01:42:38.515Z,-9.68
2018-02-23T01:43:38.145Z,-9.68
2018-02-23T01:44:38.379Z,-9.7
2018-02-23T01:45:38.101Z,-9.68
2018-02-23T01:46:38.333Z,-9.63
2018-02-23T01:47:38.306Z,-9.81
2018-02-23T01:48:38.292Z,-9.8
2018-02-23T01:49:38.258Z,-9.81
2018-02-23T01:50:38.247Z,-9.77
2018-02-23T01:51:37.956Z,-9.76
2018-02-23T01:52:38.196Z,-9.78
2018-02-23T01:53:38.165Z,-9.76
2018-02-23T01:54:37.887Z,-9.77
2018-02-23T01:55:37.604Z,-9.7
2018-02-23T01:56:38.094Z,-9.77
2018-02-23T01:57:38.071Z,-9.71
2018-02-23T01:58:37.794Z,-9.78
2018-02-23T01:59:38.025Z,-9.78
2018-02-23T02:00:37.999Z,-9.66
2018-02-23T02:01:37.975Z,-9.74
2018-02-23T02:02:37.695Z,-9.71
2018-02-23T02:03:37.668Z,-9.77
2018-02-23T02:04:37.913Z,-9.7
2018-02-23T02:05:37.880Z,-9.76
2018-02-23T02:06:37.857Z,-9.84
2018-02-23T02:07:37.575Z,-9.77
2018-02-23T02:08:37.809Z,-9.83
2018-02-23T02:09:37.527Z,-9.74
2018-02-23T02:10:37.761Z,-9.77
2018-02-23T02:11:37.476Z,-9.86
2018-02-23T02:12:37.712Z,-9.83
2018-02-23T02:13:37.432Z,-9.8
2018-02-23T02:14:37.412Z,-9.83
2018-02-23T02:15:37.638Z,-9.78
2018-02-23T02:16:37.613Z,-9.88
2018-02-23T02:17:37.336Z,-9.89
2018-02-23T02:18:37.564Z,-9.84
2018-02-23T02:19:37.548Z,-9.91
2018-02-23T02:20:37.522Z,-9.94
2018-02-23T02:21:37.499Z,-9.98
2018-02-23T02:22:37.216Z,-10.01
2018-02-23T02:23:37.446Z,-10.06
2018-02-23T02:24:37.175Z,-9.91
2018-02-23T02:25:37.141Z,-9.97
2018-02-23T02:26:37.373Z,-9.92
2018-02-23T02:27:37.352Z,-9.99
2018-02-23T02:28:37.330Z,-9.94
2018-02-23T02:29:37.307Z,-9.91
2018-02-23T02:30:37.308Z,-9.98
2018-02-23T02:31:37.265Z,-9.97
2018-02-23T02:32:37.239Z,-9.92
2018-02-23T02:33:37.214Z,-9.94
2018-02-23T02:34:36.924Z,-9.97
2018-02-23T02:35:36.908Z,-10.07
2018-02-23T02:36:37.161Z,-10.06
2018-02-23T02:37:37.123Z,-9.97
2018-02-23T02:38:37.087Z,-9.97
2018-02-23T02:39:37.078Z,-9.94
2018-02-23T02:40:37.049Z,-10.01
2018-02-23T02:41:37.021Z,-10.06
2018-02-23T02:42:36.736Z,-9.98
2018-02-23T02:43:36.975Z,-10.1
2018-02-23T02:44:36.694Z,-10.1
2018-02-23T02:45:36.662Z,-10.07
2018-02-23T02:46:36.898Z,-10.09
2018-02-23T02:47:36.887Z,-10.13
2018-02-23T02:48:36.852Z,-10.09
2018-02-23T02:49:36.821Z,-10.17
2018-02-23T02:50:36.283Z,-10.07
2018-02-23T02:51:36.778Z,-10.2
2018-02-23T02:52:36.758Z,-10.22
2018-02-23T02:53:36.732Z,-10.23
2018-02-23T02:54:36.449Z,-10.28
2018-02-23T02:55:36.704Z,-10.2
2018-02-23T02:56:36.408Z,-10.16
2018-02-23T02:57:36.639Z,-10.22
2018-02-23T02:58:36.611Z,-10.12
2018-02-23T02:59:36.595Z,-10.09
2018-02-23T03:00:36.309Z,-10.06
2018-02-23T03:01:36.537Z,-10.04
2018-02-23T03:02:36.518Z,-10.1
2018-02-23T03:03:36.487Z,-10.09
2018-02-23T03:04:36.468Z,-10.06
2018-02-23T03:05:36.449Z,-10.06
2018-02-23T03:06:36.160Z,-10.09
2018-02-23T03:07:36.401Z,-10.06
2018-02-23T03:08:36.374Z,-10.07
2018-02-23T03:09:36.343Z,-10.07
2018-02-23T03:10:36.063Z,-10.06
2018-02-23T03:11:36.295Z,-10.04
2018-02-23T03:12:36.276Z,-10.04
2018-02-23T03:13:35.993Z,-10.12
2018-02-23T03:14:36.226Z,-10.1
2018-02-23T03:15:36.196Z,-10.1
2018-02-23T03:16:36.175Z,-10.1
2018-02-23T03:17:36.152Z,-10.1
2018-02-23T03:18:36.129Z,-10.06
2018-02-23T03:19:36.105Z,-10.17
2018-02-23T03:20:35.823Z,-10.17
2018-02-23T03:21:35.799Z,-10.15
2018-02-23T03:22:36.027Z,-10.06
2018-02-23T03:23:36.006Z,-10.17
2018-02-23T03:24:35.728Z,-10.22
2018-02-23T03:25:35.955Z,-10.23
2018-02-23T03:26:35.936Z,-10.26
2018-02-23T03:27:35.910Z,-10.17
2018-02-23T03:28:35.885Z,-10.26
2018-02-23T03:29:35.604Z,-10.33
2018-02-23T03:30:35.844Z,-10.27
2018-02-23T03:31:35.559Z,-10.36
2018-02-23T03:32:35.531Z,-10.37
2018-02-23T03:33:35.762Z,-10.38
2018-02-23T03:34:35.737Z,-10.34
2018-02-23T03:35:35.715Z,-10.36
2018-02-23T03:36:35.694Z,-10.3
2018-02-23T03:37:35.413Z,-10.28
2018-02-23T03:38:35.647Z,-10.27
2018-02-23T03:39:35.360Z,-10.17
2018-02-23T03:40:35.597Z,-10.28
2018-02-23T03:41:35.575Z,-10.26
2018-02-23T03:42:35.552Z,-10.27
2018-02-23T03:43:35.268Z,-10.33
2018-02-23T03:44:35.506Z,-10.34
2018-02-23T03:45:35.214Z,-10.38
2018-02-23T03:46:35.456Z,-10.31
2018-02-23T03:47:35.425Z,-10.4
2018-02-23T03:48:35.404Z,-10.31
2018-02-23T03:49:35.387Z,-10.34
2018-02-23T03:50:35.356Z,-10.38
2018-02-23T03:51:35.079Z,-10.38
2018-02-23T03:52:35.305Z,-10.36
2018-02-23T03:53:35.026Z,-10.28
2018-02-23T03:54:35.002Z,-10.3
2018-02-23T03:55:35.240Z,-10.31
2018-02-23T03:56:35.209Z,-10.27
2018-02-23T03:57:35.200Z,-10.31
2018-02-23T03:58:35.161Z,-10.28
2018-02-23T03:59:35.139Z,-10.3
2018-02-23T04:00:34.855Z,-10.38
2018-02-23T04:01:35.094Z,-10.38
2018-02-23T04:02:35.061Z,-10.34
2018-02-23T04:03:34.784Z,-10.34
2018-02-23T04:04:35.019Z,-10.36
2018-02-23T04:05:34.736Z,-10.4
2018-02-23T04:06:34.972Z,-10.37
2018-02-23T04:07:34.684Z,-10.31
2018-02-23T04:08:34.921Z,-10.31
2018-02-23T04:09:34.897Z,-10.31
2018-02-23T04:10:34.870Z,-10.37
2018-02-23T04:11:34.846Z,-10.28
2018-02-23T04:12:34.825Z,-10.28
2018-02-23T04:13:34.538Z,-10.26
2018-02-23T04:14:34.514Z,-10.34
2018-02-23T04:15:34.749Z,-10.38
2018-02-23T04:16:34.727Z,-10.4
2018-02-23T04:17:34.701Z,-10.49
2018-02-23T04:18:34.679Z,-10.45
2018-02-23T04:19:34.651Z,-10.44
2018-02-23T04:20:34.635Z,-10.52
2018-02-23T04:21:34.089Z,-10.47
2018-02-23T04:22:34.323Z,-10.48
2018-02-23T04:23:34.559Z,-10.51
2018-02-23T04:24:34.530Z,-10.51
2018-02-23T04:25:34.248Z,-10.47
2018-02-23T04:26:34.480Z,-10.48
2018-02-23T04:27:34.211Z,-10.52
2018-02-23T04:28:34.525Z,-10.51
2018-02-23T04:29:34.163Z,-10.51
2018-02-23T04:30:34.131Z,-10.54
2018-02-23T04:31:34.107Z,-10.55
2018-02-23T04:32:34.080Z,-10.54
2018-02-23T04:33:34.315Z,-10.58
2018-02-23T04:34:34.030Z,-10.61
2018-02-23T04:35:34.008Z,-10.52
2018-02-23T04:36:34.244Z,-10.58
2018-02-23T04:37:34.214Z,-10.58
2018-02-23T04:38:33.678Z,-10.63
2018-02-23T04:39:33.909Z,-10.58
2018-02-23T04:40:33.630Z,-10.58
2018-02-23T04:41:34.123Z,-10.69
2018-02-23T04:42:34.091Z,-10.58
2018-02-23T04:43:34.072Z,-10.7
2018-02-23T04:44:34.056Z,-10.65
2018-02-23T04:45:34.023Z,-10.58
2018-02-23T04:46:33.997Z,-10.59
2018-02-23T04:47:33.714Z,-10.61
2018-02-23T04:48:33.693Z,-10.7
2018-02-23T04:49:33.671Z,-10.63
2018-02-23T04:50:33.896Z,-10.68
2018-02-23T04:51:33.877Z,-10.68
2018-02-23T04:52:33.855Z,-10.59
2018-02-23T04:53:33.824Z,-10.63
2018-02-23T04:54:33.809Z,-10.57
2018-02-23T04:55:33.522Z,-10.57
2018-02-23T04:56:33.761Z,-10.55
2018-02-23T04:57:33.471Z,-10.55
2018-02-23T04:58:33.710Z,-10.58
2018-02-23T04:59:33.425Z,-10.58
2018-02-23T05:00:33.660Z,-10.63
2018-02-23T05:01:33.633Z,-10.73
2018-02-23T05:02:33.655Z,-10.7
2018-02-23T05:03:33.588Z,-10.72
2018-02-23T05:04:33.562Z,-10.81
2018-02-23T05:05:33.556Z,-10.75
2018-02-23T05:06:33.515Z,-10.72
2018-02-23T05:07:33.229Z,-10.73
2018-02-23T05:08:33.464Z,-10.79
2018-02-23T05:09:33.231Z,-10.78
2018-02-23T05:10:33.419Z,-10.78
2018-02-23T05:11:33.395Z,-10.83
2018-02-23T05:12:33.108Z,-10.76
2018-02-23T05:13:33.082Z,-10.81
2018-02-23T05:14:33.062Z,-10.81
2018-02-23T05:15:33.037Z,-10.81
2018-02-23T05:16:33.322Z,-10.85
2018-02-23T05:17:33.248Z,-10.91
2018-02-23T05:18:33.217Z,-10.92
2018-02-23T05:19:33.191Z,-10.83
2018-02-23T05:20:33.171Z,-10.88
2018-02-23T05:21:32.885Z,-10.87
2018-02-23T05:22:33.119Z,-10.81
2018-02-23T05:23:33.096Z,-10.72
2018-02-23T05:24:32.815Z,-10.79
2018-02-23T05:25:32.799Z,-10.78
2018-02-23T05:26:32.765Z,-10.83
2018-02-23T05:27:33.000Z,-10.79
2018-02-23T05:28:32.974Z,-10.85
2018-02-23T05:29:32.434Z,-10.85
2018-02-23T05:30:32.929Z,-10.95
2018-02-23T05:31:32.897Z,-10.85
2018-02-23T05:32:32.877Z,-10.88
2018-02-23T05:33:32.598Z,-10.76
2018-02-23T05:34:32.827Z,-10.83
2018-02-23T05:35:32.803Z,-10.89
2018-02-23T05:36:32.778Z,-10.87
2018-02-23T05:37:32.495Z,-10.92
2018-02-23T05:38:32.728Z,-10.79
2018-02-23T05:39:32.449Z,-10.87
2018-02-23T05:40:32.678Z,-10.88
2018-02-23T05:41:32.663Z,-10.85
2018-02-23T05:42:32.382Z,-10.79
2018-02-23T05:43:32.350Z,-10.89
2018-02-23T05:44:32.580Z,-10.78
2018-02-23T05:45:32.564Z,-10.87
2018-02-23T05:46:32.537Z,-10.85
2018-02-23T05:47:32.253Z,-10.88
2018-02-23T05:48:32.227Z,-10.73
2018-02-23T05:49:32.201Z,-10.81
2018-02-23T05:50:32.437Z,-10.83
2018-02-23T05:51:31.894Z,-10.83
2018-02-23T05:52:31.870Z,-10.85
2018-02-23T05:53:32.106Z,-10.88
2018-02-23T05:54:31.830Z,-10.78
2018-02-23T05:55:32.056Z,-10.72
2018-02-23T05:56:32.292Z,-10.85
2018-02-23T05:57:32.005Z,-10.94
2018-02-23T05:58:31.988Z,-10.91
2018-02-23T05:59:31.954Z,-10.91
2018-02-23T06:00:32.189Z,-10.79
2018-02-23T06:01:31.911Z,-10.91
2018-02-23T06:02:31.884Z,-10.88
2018-02-23T06:03:31.862Z,-10.88
2018-02-23T06:04:32.093Z,-10.88
2018-02-23T06:05:32.079Z,-10.83
2018-02-23T06:06:31.788Z,-10.83
2018-02-23T06:07:31.504Z,-10.87
2018-02-23T06:08:31.994Z,-10.95
2018-02-23T06:09:31.711Z,-10.99
2018-02-23T06:10:31.693Z,-10.94
2018-02-23T06:11:31.922Z,-10.91
2018-02-23T06:12:31.898Z,-10.98
2018-02-23T06:13:31.875Z,-11.03
2018-02-23T06:14:31.591Z,-10.92
2018-02-23T06:15:31.824Z,-10.91
2018-02-23T06:16:31.543Z,-10.79
2018-02-23T06:17:31.516Z,-10.79
2018-02-23T06:18:31.494Z,-10.91
2018-02-23T06:19:31.507Z,-10.81
2018-02-23T06:20:31.445Z,-10.85
2018-02-23T06:21:31.678Z,-10.76
2018-02-23T06:22:31.655Z,-10.75
2018-02-23T06:23:31.368Z,-10.72
2018-02-23T06:24:31.607Z,-10.81
2018-02-23T06:25:31.322Z,-10.72
2018-02-23T06:26:31.555Z,-10.78
2018-02-23T06:27:31.272Z,-10.78
2018-02-23T06:28:31.247Z,-10.78
2018-02-23T06:29:31.223Z,-10.75
2018-02-23T06:30:31.208Z,-10.7
2018-02-23T06:31:31.432Z,-10.7
2018-02-23T06:32:31.151Z,-10.76
2018-02-23T06:33:31.385Z,-10.72
2018-02-23T06:34:30.847Z,-10.65
2018-02-23T06:35:31.332Z,-10.72
2018-02-23T06:36:31.367Z,-10.63
2018-02-23T06:37:31.288Z,-10.73
2018-02-23T06:38:31.006Z,-10.72
2018-02-23T06:39:31.240Z,-10.73
2018-02-23T06:40:30.954Z,-10.63
2018-02-23T06:41:31.186Z,-10.7
2018-02-23T06:42:31.170Z,-10.57
2018-02-23T06:43:30.882Z,-10.57
2018-02-23T06:44:30.857Z,-10.58
2018-02-23T06:45:30.832Z,-10.54
2018-02-23T06:46:30.814Z,-10.55
2018-02-23T06:47:31.041Z,-10.55
2018-02-23T06:48:31.014Z,-10.51
2018-02-23T06:49:30.737Z,-10.52
2018-02-23T06:50:30.969Z,-10.52
2018-02-23T06:51:30.686Z,-10.52
2018-02-23T06:52:30.948Z,-10.54
2018-02-23T06:53:30.640Z,-10.54
2018-02-23T06:54:30.871Z,-10.45
2018-02-23T06:55:30.589Z,-10.54
2018-02-23T06:56:30.564Z,-10.54
2018-02-23T06:57:30.797Z,-10.48
2018-02-23T06:58:30.514Z,-10.37
2018-02-23T06:59:30.493Z,-10.37
2018-02-23T07:00:30.732Z,-10.37
2018-02-23T07:01:30.699Z,-10.34
2018-02-23T07:02:30.680Z,-10.28
2018-02-23T07:03:30.446Z,-10.23
2018-02-23T07:04:30.368Z,-10.22
2018-02-23T07:05:30.350Z,-10.16
2018-02-23T07:06:30.581Z,-10.23
2018-02-23T07:07:30.297Z,-10.12
2018-02-23T07:08:30.530Z,-10.07
2018-02-23T07:09:30.507Z,-10.04
2018-02-23T07:10:30.224Z,-9.99
2018-02-23T07:11:30.200Z,-10.06
2018-02-23T07:12:30.433Z,-10.06
2018-02-23T07:13:29.896Z,-9.91
2018-02-23T07:14:30.127Z,-9.94
2018-02-23T07:15:30.363Z,-9.81
2018-02-23T07:16:30.363Z,-9.77
2018-02-23T07:17:29.800Z,-9.81
2018-02-23T07:18:30.295Z,-9.73
2018-02-23T07:19:30.265Z,-9.77
2018-02-23T07:20:30.243Z,-9.7
2018-02-23T07:21:29.959Z,-9.65
2018-02-23T07:22:29.934Z,-9.55
2018-02-23T07:23:29.908Z,-9.56
2018-02-23T07:24:30.150Z,-9.45
2018-02-23T07:25:29.868Z,-9.47
2018-02-23T07:26:30.100Z,-9.41
2018-02-23T07:27:29.820Z,-9.37
2018-02-23T07:28:29.531Z,-9.26
2018-02-23T07:29:29.509Z,-9.23
2018-02-23T07:30:30.002Z,-9.22
2018-02-23T07:31:29.980Z,-9.15
2018-02-23T07:32:29.961Z,-9.02
2018-02-23T07:33:29.672Z,-8.99
2018-02-23T07:34:29.909Z,-8.9
2018-02-23T07:35:29.626Z,-8.91
2018-02-23T07:36:29.601Z,-8.87
2018-02-23T07:37:29.839Z,-8.78
2018-02-23T07:38:29.808Z,-8.76
2018-02-23T07:39:29.618Z,-8.81
2018-02-23T07:40:29.507Z,-8.66
2018-02-23T07:41:29.485Z,-8.6
2018-02-23T07:42:29.714Z,-8.62
2018-02-23T07:43:29.698Z,-8.6
2018-02-23T07:44:29.669Z,-8.62
2018-02-23T07:45:29.642Z,-8.48
2018-02-23T07:46:29.624Z,-8.52
2018-02-23T07:47:29.607Z,-8.42
2018-02-23T07:48:29.582Z,-8.46
2018-02-23T07:49:29.293Z,-8.45
2018-02-23T07:50:29.603Z,-8.42
2018-02-23T07:51:29.245Z,-8.41
2018-02-23T07:52:29.222Z,-8.38
2018-02-23T07:53:29.460Z,-8.31
2018-02-23T07:54:29.176Z,-8.34
2018-02-23T07:55:29.417Z,-8.33
2018-02-23T07:56:29.386Z,-8.33
2018-02-23T07:57:29.102Z,-8.27
2018-02-23T07:58:29.338Z,-8.27
2018-02-23T07:59:29.056Z,-8.15
2018-02-23T08:00:29.033Z,-8.18
2018-02-23T08:01:29.276Z,-8.16
2018-02-23T08:02:28.987Z,-8.12
2018-02-23T08:03:29.230Z,-8.12
2018-02-23T08:04:28.941Z,-8.06
2018-02-23T08:05:29.175Z,-8.02
2018-02-23T08:06:28.893Z,-8.09
2018-02-23T08:07:29.129Z,-8.06
2018-02-23T08:08:28.845Z,-8.07
2018-02-23T08:09:29.079Z,-7.94
2018-02-23T08:10:28.798Z,-7.88
2018-02-23T08:11:29.034Z,-7.87
2018-02-23T08:12:28.758Z,-7.91
2018-02-23T08:13:28.995Z,-7.83
2018-02-23T08:14:28.962Z,-7.83
2018-02-23T08:15:28.945Z,-7.75
2018-02-23T08:16:28.919Z,-7.67
2018-02-23T08:17:28.636Z,-7.66
2018-02-23T08:18:28.616Z,-7.62
2018-02-23T08:19:28.332Z,-7.65
2018-02-23T08:20:28.829Z,-7.58
2018-02-23T08:21:28.548Z,-7.62
2018-02-23T08:22:28.520Z,-7.55
2018-02-23T08:23:28.501Z,-7.55
2018-02-23T08:24:28.733Z,-7.51
2018-02-23T08:25:28.715Z,-7.45
2018-02-23T08:26:28.788Z,-7.42
2018-02-23T08:27:28.664Z,-7.47
2018-02-23T08:28:28.684Z,-7.38
2018-02-23T08:29:28.357Z,-7.33
2018-02-23T08:30:28.596Z,-7.3
2018-02-23T08:31:28.316Z,-7.26
2018-02-23T08:32:28.290Z,-7.19
2018-02-23T08:33:28.013Z,-7.13
2018-02-23T08:34:28.249Z,-7.07
2018-02-23T08:35:28.477Z,-7.15
2018-02-23T08:36:28.460Z,-6.92
2018-02-23T08:37:28.436Z,-6.88
2018-02-23T08:38:28.408Z,-6.91
2018-02-23T08:39:28.392Z,-6.91
2018-02-23T08:40:28.363Z,-6.83
2018-02-23T08:41:27.829Z,-6.81
2018-02-23T08:42:28.317Z,-6.83
2018-02-23T08:43:28.296Z,-6.78
2018-02-23T08:44:28.277Z,-6.68
2018-02-23T08:45:27.995Z,-6.68
2018-02-23T08:46:28.225Z,-6.63
2018-02-23T08:47:28.213Z,-6.68
2018-02-23T08:48:28.183Z,-6.6
2018-02-23T08:49:27.901Z,-6.58
2018-02-23T08:50:27.881Z,-6.55
2018-02-23T08:51:28.116Z,-6.52
2018-02-23T08:52:28.093Z,-6.54
2018-02-23T08:53:27.813Z,-6.58
2018-02-23T08:54:28.049Z,-6.48
2018-02-23T08:55:28.026Z,-6.44
2018-02-23T08:56:27.743Z,-6.41
2018-02-23T08:57:27.979Z,-6.44
2018-02-23T08:58:27.445Z,-6.38
2018-02-23T08:59:27.678Z,-6.37
2018-02-23T09:00:27.917Z,-6.4
2018-02-23T09:01:27.742Z,-6.3
2018-02-23T09:02:27.608Z,-6.38
2018-02-23T09:03:27.587Z,-6.31
2018-02-23T09:04:27.820Z,-6.28
2018-02-23T09:05:27.543Z,-6.22
2018-02-23T09:06:27.782Z,-6.15
2018-02-23T09:07:27.759Z,-6.1
2018-02-23T09:08:27.479Z,-6.07
2018-02-23T09:09:27.706Z,-5.98
2018-02-23T09:10:27.683Z,-5.99
2018-02-23T09:11:27.666Z,-6.05
2018-02-23T09:12:27.745Z,-5.92
2018-02-23T09:13:27.618Z,-6.01
2018-02-23T09:14:27.338Z,-5.98
2018-02-23T09:15:27.361Z,-5.89
2018-02-23T09:16:27.298Z,-5.91
2018-02-23T09:17:27.536Z,-5.8
2018-02-23T09:18:26.993Z,-5.8
2018-02-23T09:19:27.279Z,-5.7
2018-02-23T09:20:27.466Z,-5.63
2018-02-23T09:21:27.444Z,-5.7
2018-02-23T09:22:27.422Z,-5.68
2018-02-23T09:23:27.400Z,-5.66
2018-02-23T09:24:27.380Z,-5.59
2018-02-23T09:25:27.360Z,-5.52
2018-02-23T09:26:27.333Z,-5.44
2018-02-23T09:27:27.310Z,-5.38
2018-02-23T09:28:27.302Z,-5.38
2018-02-23T09:29:27.012Z,-5.29
2018-02-23T09:30:27.248Z,-5.08
2018-02-23T09:31:27.315Z,-5
2018-02-23T09:32:27.202Z,-4.98
2018-02-23T09:33:27.199Z,-4.89
2018-02-23T09:34:26.906Z,-4.84
2018-02-23T09:35:26.880Z,-4.83
2018-02-23T09:36:27.118Z,-4.87
2018-02-23T09:37:26.838Z,-4.73
2018-02-23T09:38:26.816Z,-4.71
2018-02-23T09:39:27.052Z,-4.62
2018-02-23T09:40:27.029Z,-4.69
2018-02-23T09:41:27.012Z,-4.65
2018-02-23T09:42:26.981Z,-4.55
2018-02-23T09:43:26.969Z,-4.55
2018-02-23T09:44:26.688Z,-4.54
2018-02-23T09:45:26.660Z,-4.53
2018-02-23T09:46:26.896Z,-4.47
2018-02-23T09:47:26.884Z,-4.43
2018-02-23T09:48:26.603Z,-4.5
2018-02-23T09:49:26.841Z,-4.33
2018-02-23T09:50:26.811Z,-4.33
2018-02-23T09:51:26.531Z,-4.34
2018-02-23T09:52:26.767Z,-4.33
2018-02-23T09:53:26.496Z,-4.32
2018-02-23T09:54:26.727Z,-4.22
2018-02-23T09:55:26.444Z,-4.22
2018-02-23T09:56:26.427Z,-4.15
2018-02-23T09:57:26.401Z,-4.12
2018-02-23T09:58:26.385Z,-4.14
2018-02-23T09:59:26.363Z,-4.12
2018-02-23T10:00:26.596Z,-4.09
2018-02-23T10:01:26.581Z,-4.14
2018-02-23T10:02:26.559Z,-4.14
2018-02-23T10:03:26.279Z,-4.15
2018-02-23T10:04:26.254Z,-4
2018-02-23T10:05:26.489Z,-4.01
2018-02-23T10:06:26.218Z,-3.97
2018-02-23T10:07:26.202Z,-3.9
2018-02-23T10:08:26.177Z,-3.97
2018-02-23T10:09:26.409Z,-4.06
2018-02-23T10:10:26.388Z,-3.98
2018-02-23T10:11:26.366Z,-3.91
2018-02-23T10:12:26.088Z,-3.87
2018-02-23T10:13:26.066Z,-3.8
2018-02-23T10:14:26.044Z,-3.58
2018-02-23T10:15:26.281Z,-3.47
2018-02-23T10:16:26.258Z,-3.4
2018-02-23T10:17:26.239Z,-3.53
2018-02-23T10:18:25.701Z,-3.38
2018-02-23T10:19:26.197Z,-3.33
2018-02-23T10:20:25.916Z,-3.25
2018-02-23T10:21:26.159Z,-3.07
2018-02-23T10:22:25.617Z,-3
2018-02-23T10:23:25.854Z,-3.04
2018-02-23T10:24:25.576Z,-2.93
2018-02-23T10:25:25.812Z,-2.99
2018-02-23T10:26:25.792Z,-3
2018-02-23T10:27:26.040Z,-2.88
2018-02-23T10:28:25.749Z,-2.86
2018-02-23T10:29:25.992Z,-2.85
2018-02-23T10:30:25.965Z,-2.85
2018-02-23T10:31:25.952Z,-2.76
2018-02-23T10:32:25.674Z,-2.73
2018-02-23T10:33:25.906Z,-2.7
2018-02-23T10:34:25.882Z,-2.64
2018-02-23T10:35:25.865Z,-2.75
2018-02-23T10:36:25.634Z,-2.72
2018-02-23T10:37:25.567Z,-2.76
2018-02-23T10:38:25.543Z,-2.72
2018-02-23T10:39:25.531Z,-2.61
2018-02-23T10:40:25.765Z,-2.5
2018-02-23T10:41:25.488Z,-2.58
2018-02-23T10:42:25.720Z,-2.5
2018-02-23T10:43:25.184Z,-2.49
2018-02-23T10:44:25.680Z,-2.36
2018-02-23T10:45:25.402Z,-2.32
2018-02-23T10:46:25.394Z,-2.43
2018-02-23T10:47:25.358Z,-2.39
2018-02-23T10:48:25.599Z,-2.3
2018-02-23T10:49:25.319Z,-2.21
2018-02-23T10:50:25.300Z,-2.18
2018-02-23T10:51:25.276Z,-2.17
2018-02-23T10:52:25.517Z,-2.12
2018-02-23T10:53:25.495Z,-2.06
2018-02-23T10:54:25.479Z,-1.94
2018-02-23T10:55:25.196Z,-2.05
2018-02-23T10:56:25.434Z,-1.97
2018-02-23T10:57:25.418Z,-2.05
2018-02-23T10:58:25.137Z,-2.03
2018-02-23T10:59:25.375Z,-2.07
2018-02-23T11:00:25.095Z,-2.07
2018-02-23T11:01:25.076Z,-2.07
2018-02-23T11:02:25.056Z,-2.07
2018-02-23T11:03:25.299Z,-2.15
2018-02-23T11:04:25.016Z,-2.07
2018-02-23T11:05:24.998Z,-2.09
2018-02-23T11:06:24.975Z,-2.12
2018-02-23T11:07:25.234Z,-2.06
2018-02-23T11:08:24.935Z,-2.02
2018-02-23T11:09:24.915Z,-2.12
2018-02-23T11:10:25.153Z,-2.06
2018-02-23T11:11:24.877Z,-2.09
2018-02-23T11:12:25.114Z,-2.02
2018-02-23T11:13:24.837Z,-1.92
2018-02-23T11:14:24.816Z,-1.81
2018-02-23T11:15:24.540Z,-1.85
2018-02-23T11:16:25.034Z,-1.86
2018-02-23T11:17:24.753Z,-1.84
2018-02-23T11:18:24.735Z,-1.85
2018-02-23T11:19:24.714Z,-1.74
2018-02-23T11:20:24.695Z,-1.7
2018-02-23T11:21:24.938Z,-1.84
2018-02-23T11:22:24.397Z,-1.81
2018-02-23T11:23:24.379Z,-1.82
2018-02-23T11:24:24.617Z,-1.86
2018-02-23T11:25:24.858Z,-1.7
2018-02-23T11:26:24.575Z,-1.73
2018-02-23T11:27:24.816Z,-1.68
2018-02-23T11:28:24.797Z,-1.71
2018-02-23T11:29:24.774Z,-1.74
2018-02-23T11:30:24.802Z,-1.68
2018-02-23T11:31:24.476Z,-1.6
2018-02-23T11:32:24.710Z,-1.58
2018-02-23T11:33:24.690Z,-1.66
2018-02-23T11:34:24.677Z,-1.58
2018-02-23T11:35:24.650Z,-1.7
2018-02-23T11:36:24.630Z,-1.67
2018-02-23T11:37:24.360Z,-1.73
2018-02-23T11:38:24.337Z,-1.88
2018-02-23T11:39:24.576Z,-1.84
2018-02-23T11:40:24.296Z,-1.94
2018-02-23T11:41:24.531Z,-1.88
2018-02-23T11:42:24.254Z,-1.86
2018-02-23T11:43:24.495Z,-1.86
2018-02-23T11:44:24.470Z,-1.85
2018-02-23T11:45:23.939Z,-1.78
2018-02-23T11:46:24.176Z,-1.7
2018-02-23T11:47:24.157Z,-1.73
2018-02-23T11:48:24.135Z,-1.71
2018-02-23T11:49:24.408Z,-1.67
2018-02-23T11:50:24.544Z,-1.71
2018-02-23T11:51:24.074Z,-1.68
2018-02-23T11:52:24.313Z,-1.68
2018-02-23T11:53:24.035Z,-1.73
2018-02-23T11:54:24.276Z,-1.68
2018-02-23T11:55:24.261Z,-1.66
2018-02-23T11:56:23.975Z,-1.61
2018-02-23T11:57:24.215Z,-1.64
2018-02-23T11:58:23.939Z,-1.61
2018-02-23T11:59:24.174Z,-1.61
2018-02-23T12:00:24.159Z,-1.64
2018-02-23T12:01:23.887Z,-1.68
2018-02-23T12:02:23.856Z,-1.66
2018-02-23T12:03:23.838Z,-1.7
2018-02-23T12:04:23.820Z,-1.79
2018-02-23T12:05:23.799Z,-1.79
2018-02-23T12:06:24.042Z,-1.82
2018-02-23T12:07:23.756Z,-1.68
2018-02-23T12:08:23.738Z,-1.73
2018-02-23T12:09:23.462Z,-1.7
2018-02-23T12:10:23.959Z,-1.67
2018-02-23T12:11:23.935Z,-1.73
2018-02-23T12:12:23.956Z,-1.78
2018-02-23T12:13:23.895Z,-1.81
2018-02-23T12:14:23.619Z,-1.86
2018-02-23T12:15:23.596Z,-1.84
2018-02-23T12:16:23.832Z,-2.07
2018-02-23T12:17:23.831Z,-2.03
2018-02-23T12:18:23.796Z,-1.97
2018-02-23T12:19:23.517Z,-1.91
2018-02-23T12:20:23.759Z,-1.97
2018-02-23T12:21:23.930Z,-2.03
2018-02-23T12:22:23.731Z,-1.99
2018-02-23T12:23:23.694Z,-1.94
2018-02-23T12:24:23.675Z,-1.88
2018-02-23T12:25:23.398Z,-1.76
2018-02-23T12:26:23.635Z,-1.71
2018-02-23T12:27:23.615Z,-1.89
2018-02-23T12:28:23.621Z,-1.85
2018-02-23T12:29:23.320Z,-1.82
2018-02-23T12:30:23.042Z,-1.81
2018-02-23T12:31:23.547Z,-1.86
2018-02-23T12:32:23.520Z,-1.78
2018-02-23T12:33:23.238Z,-1.81
2018-02-23T12:34:23.218Z,-1.74
2018-02-23T12:35:23.522Z,-1.71
2018-02-23T12:36:22.924Z,-1.66
2018-02-23T12:37:23.158Z,-1.71
2018-02-23T12:38:23.402Z,-1.7
2018-02-23T12:39:23.379Z,-1.7
2018-02-23T12:40:23.364Z,-1.66
2018-02-23T12:41:23.344Z,-1.73
2018-02-23T12:42:23.316Z,-1.64
2018-02-23T12:43:23.042Z,-1.74
2018-02-23T12:44:22.769Z,-1.7
2018-02-23T12:45:23.256Z,-1.71
2018-02-23T12:46:22.723Z,-1.56